sensor_id;sensor_type;location;lat;lon;timestamp;P1;durP1;ratioP1;P2;durP2;ratioP2
65543;SDS011;52173;45.204;39.240;2022-07-18T00:00:17;9.65;;;5.22;;
65543;SDS011;52173;45.204;39.240;2022-07-18T00:02:43;10.27;;;6.13;;
65543;SDS011;52173;45.204;39.240;2022-07-18T00:05:09;12.13;;;6.03;;
65543;SDS011;52173;45.204;39.240;2022-07-18T00:07:36;10.73;;;6.55;;
65543;SDS011;52173;45.204;39.240;2022-07-18T00:10:02;8.32;;;5.47;;
65543;SDS011;52173;45.204;39.240;2022-07-18T00:12:29;10.52;;;5.50;;
65543;SDS011;52173;45.204;39.240;2022-07-18T00:14:55;9.15;;;6.03;;
65543;SDS011;52173;45.204;39.240;2022-07-18T00:17:22;8.70;;;6.13;;
65543;SDS011;52173;45.204;39.240;2022-07-18T00:19:48;11.65;;;5.82;;
65543;SDS011;52173;45.204;39.240;2022-07-18T00:22:14;9.38;;;5.70;;
65543;SDS011;52173;45.204;39.240;2022-07-18T00:24:41;8.98;;;5.45;;
65543;SDS011;52173;45.204;39.240;2022-07-18T00:27:07;9.00;;;5.35;;
65543;SDS011;52173;45.204;39.240;2022-07-18T00:29:34;7.75;;;5.35;;
65543;SDS011;52173;45.204;39.240;2022-07-18T00:32:05;9.32;;;5.53;;
65543;SDS011;52173;45.204;39.240;2022-07-18T00:34:32;11.07;;;5.70;;
65543;SDS011;52173;45.204;39.240;2022-07-18T00:36:59;8.50;;;5.70;;
65543;SDS011;52173;45.204;39.240;2022-07-18T00:39:26;7.57;;;5.60;;
65543;SDS011;52173;45.204;39.240;2022-07-18T00:41:52;8.68;;;5.90;;
65543;SDS011;52173;45.204;39.240;2022-07-18T00:44:19;8.43;;;5.28;;
65543;SDS011;52173;45.204;39.240;2022-07-18T00:46:49;9.00;;;5.35;;
65543;SDS011;52173;45.204;39.240;2022-07-18T00:49:17;10.93;;;5.53;;
65543;SDS011;52173;45.204;39.240;2022-07-18T00:51:44;9.45;;;5.78;;
65543;SDS011;52173;45.204;39.240;2022-07-18T00:54:10;7.80;;;5.32;;
65543;SDS011;52173;45.204;39.240;2022-07-18T00:56:37;7.93;;;6.15;;
65543;SDS011;52173;45.204;39.240;2022-07-18T00:59:03;7.45;;;5.70;;
65543;SDS011;52173;45.204;39.240;2022-07-18T01:01:30;9.63;;;5.60;;
65543;SDS011;52173;45.204;39.240;2022-07-18T01:04:19;12.27;;;5.90;;
65543;SDS011;52173;45.204;39.240;2022-07-18T01:06:47;7.15;;;5.10;;
65543;SDS011;52173;45.204;39.240;2022-07-18T01:09:16;7.68;;;5.63;;
65543;SDS011;52173;45.204;39.240;2022-07-18T01:11:44;8.73;;;5.47;;
65543;SDS011;52173;45.204;39.240;2022-07-18T01:14:11;8.90;;;5.85;;
65543;SDS011;52173;45.204;39.240;2022-07-18T01:16:39;9.18;;;5.32;;
65543;SDS011;52173;45.204;39.240;2022-07-18T01:19:05;6.38;;;5.25;;
65543;SDS011;52173;45.204;39.240;2022-07-18T01:21:32;8.23;;;5.63;;
65543;SDS011;52173;45.204;39.240;2022-07-18T01:23:58;9.93;;;5.63;;
65543;SDS011;52173;45.204;39.240;2022-07-18T01:26:25;12.20;;;5.85;;
65543;SDS011;52173;45.204;39.240;2022-07-18T01:28:51;8.52;;;5.90;;
65543;SDS011;52173;45.204;39.240;2022-07-18T01:31:18;9.23;;;6.50;;
65543;SDS011;52173;45.204;39.240;2022-07-18T01:33:44;11.68;;;5.88;;
65543;SDS011;52173;45.204;39.240;2022-07-18T01:36:11;9.43;;;5.97;;
65543;SDS011;52173;45.204;39.240;2022-07-18T01:38:37;9.02;;;6.50;;
65543;SDS011;52173;45.204;39.240;2022-07-18T01:41:04;15.75;;;6.47;;
65543;SDS011;52173;45.204;39.240;2022-07-18T01:43:31;10.10;;;6.10;;
65543;SDS011;52173;45.204;39.240;2022-07-18T01:45:57;10.02;;;6.85;;
65543;SDS011;52173;45.204;39.240;2022-07-18T01:48:24;11.13;;;6.80;;
65543;SDS011;52173;45.204;39.240;2022-07-18T01:50:50;8.70;;;6.18;;
65543;SDS011;52173;45.204;39.240;2022-07-18T01:53:17;17.55;;;7.00;;
65543;SDS011;52173;45.204;39.240;2022-07-18T01:55:43;11.15;;;7.03;;
65543;SDS011;52173;45.204;39.240;2022-07-18T01:58:10;10.98;;;6.78;;
65543;SDS011;52173;45.204;39.240;2022-07-18T02:00:36;14.43;;;8.02;;
65543;SDS011;52173;45.204;39.240;2022-07-18T02:03:02;10.88;;;7.90;;
65543;SDS011;52173;45.204;39.240;2022-07-18T02:05:29;16.63;;;7.88;;
65543;SDS011;52173;45.204;39.240;2022-07-18T02:07:55;14.27;;;7.65;;
65543;SDS011;52173;45.204;39.240;2022-07-18T02:10:21;13.63;;;7.65;;
65543;SDS011;52173;45.204;39.240;2022-07-18T02:12:47;11.88;;;7.05;;
65543;SDS011;52173;45.204;39.240;2022-07-18T02:15:15;15.55;;;7.93;;
65543;SDS011;52173;45.204;39.240;2022-07-18T02:17:42;9.95;;;7.90;;
65543;SDS011;52173;45.204;39.240;2022-07-18T02:20:10;10.52;;;8.07;;
65543;SDS011;52173;45.204;39.240;2022-07-18T02:22:38;10.95;;;8.60;;
65543;SDS011;52173;45.204;39.240;2022-07-18T02:25:05;20.45;;;13.23;;
65543;SDS011;52173;45.204;39.240;2022-07-18T02:27:32;15.80;;;10.75;;
65543;SDS011;52173;45.204;39.240;2022-07-18T02:29:58;17.13;;;9.90;;
65543;SDS011;52173;45.204;39.240;2022-07-18T02:32:24;14.18;;;10.63;;
65543;SDS011;52173;45.204;39.240;2022-07-18T02:34:51;12.50;;;9.40;;
65543;SDS011;52173;45.204;39.240;2022-07-18T02:37:17;13.48;;;9.23;;
65543;SDS011;52173;45.204;39.240;2022-07-18T02:39:43;16.92;;;9.50;;
65543;SDS011;52173;45.204;39.240;2022-07-18T02:42:09;11.23;;;10.07;;
65543;SDS011;52173;45.204;39.240;2022-07-18T02:44:36;13.98;;;10.05;;
65543;SDS011;52173;45.204;39.240;2022-07-18T02:47:02;14.88;;;11.05;;
65543;SDS011;52173;45.204;39.240;2022-07-18T02:49:28;14.15;;;10.57;;
65543;SDS011;52173;45.204;39.240;2022-07-18T02:51:56;15.73;;;10.70;;
65543;SDS011;52173;45.204;39.240;2022-07-18T02:54:24;14.38;;;9.88;;
65543;SDS011;52173;45.204;39.240;2022-07-18T02:56:53;12.45;;;9.88;;
65543;SDS011;52173;45.204;39.240;2022-07-18T02:59:19;11.05;;;8.57;;
65543;SDS011;52173;45.204;39.240;2022-07-18T03:01:46;11.75;;;8.25;;
65543;SDS011;52173;45.204;39.240;2022-07-18T03:04:14;23.17;;;8.55;;
65543;SDS011;52173;45.204;39.240;2022-07-18T03:06:41;11.43;;;8.15;;
65543;SDS011;52173;45.204;39.240;2022-07-18T03:09:07;10.75;;;8.25;;
65543;SDS011;52173;45.204;39.240;2022-07-18T03:11:34;13.57;;;7.57;;
65543;SDS011;52173;45.204;39.240;2022-07-18T03:14:00;9.73;;;6.90;;
65543;SDS011;52173;45.204;39.240;2022-07-18T03:16:26;12.48;;;7.05;;
65543;SDS011;52173;45.204;39.240;2022-07-18T03:18:52;12.60;;;7.65;;
65543;SDS011;52173;45.204;39.240;2022-07-18T03:21:19;10.45;;;7.90;;
65543;SDS011;52173;45.204;39.240;2022-07-18T03:23:45;11.82;;;7.68;;
65543;SDS011;52173;45.204;39.240;2022-07-18T03:26:12;9.23;;;7.60;;
65543;SDS011;52173;45.204;39.240;2022-07-18T03:28:39;14.48;;;7.10;;
65543;SDS011;52173;45.204;39.240;2022-07-18T03:31:05;12.30;;;7.53;;
65543;SDS011;52173;45.204;39.240;2022-07-18T03:33:31;12.73;;;7.82;;
65543;SDS011;52173;45.204;39.240;2022-07-18T03:35:58;9.07;;;7.38;;
65543;SDS011;52173;45.204;39.240;2022-07-18T03:38:24;10.20;;;8.00;;
65543;SDS011;52173;45.204;39.240;2022-07-18T03:40:50;10.48;;;7.10;;
65543;SDS011;52173;45.204;39.240;2022-07-18T03:43:16;11.05;;;7.45;;
65543;SDS011;52173;45.204;39.240;2022-07-18T03:45:43;12.20;;;7.43;;
65543;SDS011;52173;45.204;39.240;2022-07-18T03:48:09;10.32;;;7.75;;
65543;SDS011;52173;45.204;39.240;2022-07-18T03:50:35;14.30;;;7.53;;
65543;SDS011;52173;45.204;39.240;2022-07-18T03:53:01;11.45;;;7.30;;
65543;SDS011;52173;45.204;39.240;2022-07-18T03:55:27;10.80;;;7.50;;
65543;SDS011;52173;45.204;39.240;2022-07-18T03:57:53;11.88;;;7.57;;
65543;SDS011;52173;45.204;39.240;2022-07-18T04:00:20;9.52;;;7.38;;
65543;SDS011;52173;45.204;39.240;2022-07-18T04:02:47;10.60;;;7.32;;
65543;SDS011;52173;45.204;39.240;2022-07-18T04:05:14;12.45;;;8.13;;
65543;SDS011;52173;45.204;39.240;2022-07-18T04:07:41;13.13;;;8.60;;
65543;SDS011;52173;45.204;39.240;2022-07-18T04:10:09;12.68;;;7.65;;
65543;SDS011;52173;45.204;39.240;2022-07-18T04:12:46;10.27;;;7.22;;
65543;SDS011;52173;45.204;39.240;2022-07-18T04:15:14;17.10;;;7.88;;
65543;SDS011;52173;45.204;39.240;2022-07-18T04:17:41;11.52;;;7.95;;
65543;SDS011;52173;45.204;39.240;2022-07-18T04:20:07;13.25;;;7.55;;
65543;SDS011;52173;45.204;39.240;2022-07-18T04:22:44;10.13;;;6.95;;
65543;SDS011;52173;45.204;39.240;2022-07-18T04:25:14;9.50;;;6.75;;
65543;SDS011;52173;45.204;39.240;2022-07-18T04:27:41;10.32;;;6.43;;
65543;SDS011;52173;45.204;39.240;2022-07-18T04:30:08;12.15;;;6.75;;
65543;SDS011;52173;45.204;39.240;2022-07-18T04:32:35;10.52;;;6.65;;
65543;SDS011;52173;45.204;39.240;2022-07-18T04:35:01;14.40;;;7.10;;
65543;SDS011;52173;45.204;39.240;2022-07-18T04:37:29;9.30;;;7.07;;
65543;SDS011;52173;45.204;39.240;2022-07-18T04:39:57;13.75;;;6.72;;
65543;SDS011;52173;45.204;39.240;2022-07-18T04:42:24;11.15;;;7.07;;
65543;SDS011;52173;45.204;39.240;2022-07-18T04:44:50;11.88;;;7.28;;
65543;SDS011;52173;45.204;39.240;2022-07-18T04:47:17;8.80;;;6.35;;
65543;SDS011;52173;45.204;39.240;2022-07-18T04:49:43;12.07;;;6.60;;
65543;SDS011;52173;45.204;39.240;2022-07-18T04:52:09;11.63;;;6.50;;
65543;SDS011;52173;45.204;39.240;2022-07-18T04:54:35;12.77;;;6.82;;
65543;SDS011;52173;45.204;39.240;2022-07-18T04:57:02;15.65;;;7.10;;
65543;SDS011;52173;45.204;39.240;2022-07-18T04:59:28;11.10;;;6.25;;
65543;SDS011;52173;45.204;39.240;2022-07-18T05:01:54;13.27;;;6.45;;
65543;SDS011;52173;45.204;39.240;2022-07-18T05:04:20;11.13;;;6.43;;
65543;SDS011;52173;45.204;39.240;2022-07-18T05:06:47;11.15;;;6.03;;
65543;SDS011;52173;45.204;39.240;2022-07-18T05:09:13;11.73;;;6.13;;
65543;SDS011;52173;45.204;39.240;2022-07-18T05:11:39;9.73;;;5.70;;
65543;SDS011;52173;45.204;39.240;2022-07-18T05:14:05;12.40;;;6.10;;
65543;SDS011;52173;45.204;39.240;2022-07-18T05:16:32;12.95;;;6.28;;
65543;SDS011;52173;45.204;39.240;2022-07-18T05:18:58;9.93;;;5.97;;
65543;SDS011;52173;45.204;39.240;2022-07-18T05:21:24;8.82;;;6.40;;
65543;SDS011;52173;45.204;39.240;2022-07-18T05:23:50;12.50;;;6.18;;
65543;SDS011;52173;45.204;39.240;2022-07-18T05:26:17;12.73;;;6.65;;
65543;SDS011;52173;45.204;39.240;2022-07-18T05:28:43;10.93;;;6.68;;
65543;SDS011;52173;45.204;39.240;2022-07-18T05:31:09;8.80;;;6.38;;
65543;SDS011;52173;45.204;39.240;2022-07-18T05:33:35;11.73;;;6.30;;
65543;SDS011;52173;45.204;39.240;2022-07-18T05:36:01;14.13;;;7.18;;
65543;SDS011;52173;45.204;39.240;2022-07-18T05:38:28;12.95;;;6.53;;
65543;SDS011;52173;45.204;39.240;2022-07-18T05:40:54;9.98;;;5.90;;
65543;SDS011;52173;45.204;39.240;2022-07-18T05:43:20;8.15;;;5.57;;
65543;SDS011;52173;45.204;39.240;2022-07-18T05:45:46;11.60;;;6.20;;
65543;SDS011;52173;45.204;39.240;2022-07-18T05:48:13;14.27;;;6.18;;
65543;SDS011;52173;45.204;39.240;2022-07-18T05:50:39;8.88;;;5.70;;
65543;SDS011;52173;45.204;39.240;2022-07-18T05:53:05;14.23;;;5.97;;
65543;SDS011;52173;45.204;39.240;2022-07-18T05:55:31;11.75;;;6.00;;
65543;SDS011;52173;45.204;39.240;2022-07-18T05:57:58;11.20;;;5.63;;
65543;SDS011;52173;45.204;39.240;2022-07-18T06:00:24;13.10;;;6.00;;
65543;SDS011;52173;45.204;39.240;2022-07-18T06:02:50;10.05;;;5.65;;
65543;SDS011;52173;45.204;39.240;2022-07-18T06:05:17;9.93;;;5.28;;
65543;SDS011;52173;45.204;39.240;2022-07-18T06:07:43;11.90;;;5.65;;
65543;SDS011;52173;45.204;39.240;2022-07-18T06:10:09;9.80;;;5.30;;
65543;SDS011;52173;45.204;39.240;2022-07-18T06:12:36;12.38;;;5.57;;
65543;SDS011;52173;45.204;39.240;2022-07-18T06:15:03;10.05;;;5.15;;
65543;SDS011;52173;45.204;39.240;2022-07-18T06:17:30;8.82;;;4.90;;
65543;SDS011;52173;45.204;39.240;2022-07-18T06:19:56;9.25;;;5.15;;
65543;SDS011;52173;45.204;39.240;2022-07-18T06:22:23;10.02;;;5.10;;
65543;SDS011;52173;45.204;39.240;2022-07-18T06:24:49;8.65;;;5.00;;
65543;SDS011;52173;45.204;39.240;2022-07-18T06:27:16;8.60;;;4.75;;
65543;SDS011;52173;45.204;39.240;2022-07-18T06:29:42;11.95;;;4.90;;
65543;SDS011;52173;45.204;39.240;2022-07-18T06:32:08;8.00;;;4.68;;
65543;SDS011;52173;45.204;39.240;2022-07-18T06:34:34;7.85;;;4.60;;
65543;SDS011;52173;45.204;39.240;2022-07-18T06:37:01;11.50;;;4.85;;
65543;SDS011;52173;45.204;39.240;2022-07-18T06:39:27;9.98;;;4.72;;
65543;SDS011;52173;45.204;39.240;2022-07-18T06:41:54;10.48;;;4.75;;
65543;SDS011;52173;45.204;39.240;2022-07-18T06:44:20;10.00;;;4.88;;
65543;SDS011;52173;45.204;39.240;2022-07-18T06:46:46;12.52;;;4.93;;
65543;SDS011;52173;45.204;39.240;2022-07-18T06:49:13;10.82;;;4.78;;
65543;SDS011;52173;45.204;39.240;2022-07-18T06:51:41;11.75;;;4.57;;
65543;SDS011;52173;45.204;39.240;2022-07-18T06:54:07;18.00;;;5.07;;
65543;SDS011;52173;45.204;39.240;2022-07-18T06:56:33;9.68;;;4.35;;
65543;SDS011;52173;45.204;39.240;2022-07-18T06:58:59;11.55;;;4.63;;
65543;SDS011;52173;45.204;39.240;2022-07-18T07:01:25;11.05;;;4.65;;
65543;SDS011;52173;45.204;39.240;2022-07-18T07:03:57;7.53;;;4.03;;
65543;SDS011;52173;45.204;39.240;2022-07-18T07:06:24;9.40;;;4.17;;
65543;SDS011;52173;45.204;39.240;2022-07-18T07:08:50;7.95;;;4.13;;
65543;SDS011;52173;45.204;39.240;2022-07-18T07:11:16;7.95;;;4.28;;
65543;SDS011;52173;45.204;39.240;2022-07-18T07:13:42;11.13;;;4.57;;
65543;SDS011;52173;45.204;39.240;2022-07-18T07:16:09;6.65;;;4.05;;
65543;SDS011;52173;45.204;39.240;2022-07-18T07:18:35;8.55;;;4.30;;
65543;SDS011;52173;45.204;39.240;2022-07-18T07:21:01;10.25;;;3.97;;
65543;SDS011;52173;45.204;39.240;2022-07-18T07:23:28;7.43;;;3.95;;
65543;SDS011;52173;45.204;39.240;2022-07-18T07:25:54;6.53;;;3.72;;
65543;SDS011;52173;45.204;39.240;2022-07-18T07:28:21;5.30;;;3.50;;
65543;SDS011;52173;45.204;39.240;2022-07-18T07:30:47;10.02;;;4.50;;
65543;SDS011;52173;45.204;39.240;2022-07-18T07:33:14;11.50;;;4.10;;
65543;SDS011;52173;45.204;39.240;2022-07-18T07:35:40;6.82;;;3.80;;
65543;SDS011;52173;45.204;39.240;2022-07-18T07:38:06;5.95;;;3.60;;
65543;SDS011;52173;45.204;39.240;2022-07-18T07:40:33;8.73;;;3.60;;
65543;SDS011;52173;45.204;39.240;2022-07-18T07:43:06;8.15;;;3.38;;
65543;SDS011;52173;45.204;39.240;2022-07-18T07:45:35;6.18;;;3.30;;
65543;SDS011;52173;45.204;39.240;2022-07-18T07:48:02;7.22;;;3.72;;
65543;SDS011;52173;45.204;39.240;2022-07-18T07:50:30;6.20;;;3.42;;
65543;SDS011;52173;45.204;39.240;2022-07-18T07:52:59;5.80;;;3.58;;
65543;SDS011;52173;45.204;39.240;2022-07-18T07:55:26;11.27;;;3.58;;
65543;SDS011;52173;45.204;39.240;2022-07-18T07:57:53;11.77;;;3.40;;
65543;SDS011;52173;45.204;39.240;2022-07-18T08:00:20;6.57;;;3.50;;
65543;SDS011;52173;45.204;39.240;2022-07-18T08:02:54;8.20;;;3.20;;
65543;SDS011;52173;45.204;39.240;2022-07-18T08:05:22;6.72;;;3.40;;
65543;SDS011;52173;45.204;39.240;2022-07-18T08:07:48;7.57;;;3.13;;
65543;SDS011;52173;45.204;39.240;2022-07-18T08:10:15;5.95;;;2.83;;
65543;SDS011;52173;45.204;39.240;2022-07-18T08:12:42;6.30;;;3.47;;
65543;SDS011;52173;45.204;39.240;2022-07-18T08:15:08;5.55;;;2.97;;
65543;SDS011;52173;45.204;39.240;2022-07-18T08:17:35;12.35;;;3.50;;
65543;SDS011;52173;45.204;39.240;2022-07-18T08:20:01;4.93;;;2.90;;
65543;SDS011;52173;45.204;39.240;2022-07-18T08:22:28;10.48;;;3.05;;
65543;SDS011;52173;45.204;39.240;2022-07-18T08:24:54;6.28;;;3.08;;
65543;SDS011;52173;45.204;39.240;2022-07-18T08:27:20;13.52;;;3.47;;
65543;SDS011;52173;45.204;39.240;2022-07-18T08:29:46;8.70;;;3.15;;
65543;SDS011;52173;45.204;39.240;2022-07-18T08:32:13;8.32;;;3.35;;
65543;SDS011;52173;45.204;39.240;2022-07-18T08:34:39;5.78;;;3.17;;
65543;SDS011;52173;45.204;39.240;2022-07-18T08:37:05;8.43;;;3.38;;
65543;SDS011;52173;45.204;39.240;2022-07-18T08:39:32;7.68;;;2.90;;
65543;SDS011;52173;45.204;39.240;2022-07-18T08:41:59;4.72;;;3.20;;
65543;SDS011;52173;45.204;39.240;2022-07-18T08:44:29;7.45;;;3.00;;
65543;SDS011;52173;45.204;39.240;2022-07-18T08:46:57;9.82;;;2.88;;
65543;SDS011;52173;45.204;39.240;2022-07-18T08:49:25;5.85;;;3.00;;
65543;SDS011;52173;45.204;39.240;2022-07-18T08:51:52;10.68;;;3.30;;
65543;SDS011;52173;45.204;39.240;2022-07-18T08:54:19;7.68;;;3.13;;
65543;SDS011;52173;45.204;39.240;2022-07-18T08:56:45;8.93;;;3.90;;
65543;SDS011;52173;45.204;39.240;2022-07-18T08:59:11;12.43;;;3.38;;
65543;SDS011;52173;45.204;39.240;2022-07-18T09:01:37;9.90;;;3.05;;
65543;SDS011;52173;45.204;39.240;2022-07-18T09:04:04;9.23;;;3.08;;
65543;SDS011;52173;45.204;39.240;2022-07-18T09:06:50;7.95;;;3.38;;
65543;SDS011;52173;45.204;39.240;2022-07-18T09:09:20;5.63;;;2.80;;
65543;SDS011;52173;45.204;39.240;2022-07-18T09:11:50;6.22;;;2.90;;
65543;SDS011;52173;45.204;39.240;2022-07-18T09:14:34;8.18;;;2.90;;
65543;SDS011;52173;45.204;39.240;2022-07-18T09:19:27;12.15;;;7.68;;
65543;SDS011;52173;45.204;39.240;2022-07-18T09:21:53;8.63;;;3.10;;
65543;SDS011;52173;45.204;39.240;2022-07-18T09:24:19;9.70;;;2.92;;
65543;SDS011;52173;45.204;39.240;2022-07-18T09:26:45;6.68;;;2.72;;
65543;SDS011;52173;45.204;39.240;2022-07-18T09:29:15;7.35;;;3.00;;
65543;SDS011;52173;45.204;39.240;2022-07-18T09:31:47;5.47;;;2.88;;
65543;SDS011;52173;45.204;39.240;2022-07-18T09:36:57;4.45;;;2.47;;
65543;SDS011;52173;45.204;39.240;2022-07-18T09:39:23;4.60;;;2.70;;
65543;SDS011;52173;45.204;39.240;2022-07-18T09:41:49;4.20;;;2.80;;
65543;SDS011;52173;45.204;39.240;2022-07-18T09:44:18;6.25;;;2.90;;
65543;SDS011;52173;45.204;39.240;2022-07-18T09:46:58;5.88;;;3.00;;
65543;SDS011;52173;45.204;39.240;2022-07-18T09:49:29;7.97;;;3.10;;
65543;SDS011;52173;45.204;39.240;2022-07-18T09:52:01;7.28;;;3.05;;
65543;SDS011;52173;45.204;39.240;2022-07-18T09:54:42;8.43;;;2.90;;
65543;SDS011;52173;45.204;39.240;2022-07-18T09:57:09;7.13;;;2.90;;
65543;SDS011;52173;45.204;39.240;2022-07-18T09:59:47;8.32;;;2.70;;
65543;SDS011;52173;45.204;39.240;2022-07-18T10:02:14;10.50;;;2.67;;
65543;SDS011;52173;45.204;39.240;2022-07-18T10:04:41;7.47;;;2.90;;
65543;SDS011;52173;45.204;39.240;2022-07-18T10:07:08;8.00;;;3.15;;
65543;SDS011;52173;45.204;39.240;2022-07-18T10:09:37;9.73;;;4.18;;
65543;SDS011;52173;45.204;39.240;2022-07-18T10:12:04;6.80;;;2.80;;
65543;SDS011;52173;45.204;39.240;2022-07-18T10:14:31;7.28;;;3.10;;
65543;SDS011;52173;45.204;39.240;2022-07-18T10:16:58;5.88;;;2.97;;
65543;SDS011;52173;45.204;39.240;2022-07-18T10:19:26;16.65;;;9.98;;
65543;SDS011;52173;45.204;39.240;2022-07-18T10:21:52;6.30;;;2.90;;
65543;SDS011;52173;45.204;39.240;2022-07-18T10:24:21;8.98;;;3.13;;
65543;SDS011;52173;45.204;39.240;2022-07-18T10:30:07;7.45;;;2.97;;
65543;SDS011;52173;45.204;39.240;2022-07-18T10:32:37;4.90;;;2.78;;
65543;SDS011;52173;45.204;39.240;2022-07-18T10:35:04;10.02;;;3.92;;
65543;SDS011;52173;45.204;39.240;2022-07-18T10:37:32;5.38;;;2.97;;
65543;SDS011;52173;45.204;39.240;2022-07-18T10:45:57;7.72;;;3.45;;
65543;SDS011;52173;45.204;39.240;2022-07-18T10:50:59;5.13;;;3.08;;
65543;SDS011;52173;45.204;39.240;2022-07-18T10:58:56;6.82;;;3.50;;
65543;SDS011;52173;45.204;39.240;2022-07-18T11:07:12;8.77;;;3.45;;
65543;SDS011;52173;45.204;39.240;2022-07-18T11:20:35;8.43;;;3.83;;
65543;SDS011;52173;45.204;39.240;2022-07-18T11:23:04;8.43;;;3.63;;
65543;SDS011;52173;45.204;39.240;2022-07-18T11:25:39;7.05;;;3.67;;
65543;SDS011;52173;45.204;39.240;2022-07-18T11:28:09;8.40;;;3.60;;
65543;SDS011;52173;45.204;39.240;2022-07-18T11:30:36;8.77;;;3.67;;
65543;SDS011;52173;45.204;39.240;2022-07-18T11:33:04;7.88;;;3.15;;
65543;SDS011;52173;45.204;39.240;2022-07-18T11:35:32;6.70;;;3.28;;
65543;SDS011;52173;45.204;39.240;2022-07-18T11:37:58;8.15;;;3.00;;
65543;SDS011;52173;45.204;39.240;2022-07-18T11:40:32;10.77;;;3.70;;
65543;SDS011;52173;45.204;39.240;2022-07-18T11:43:37;4.47;;;2.80;;
65543;SDS011;52173;45.204;39.240;2022-07-18T11:46:07;9.80;;;3.88;;
65543;SDS011;52173;45.204;39.240;2022-07-18T11:48:35;6.85;;;3.15;;
65543;SDS011;52173;45.204;39.240;2022-07-18T11:51:08;14.50;;;3.25;;
65543;SDS011;52173;45.204;39.240;2022-07-18T11:53:35;7.75;;;3.10;;
65543;SDS011;52173;45.204;39.240;2022-07-18T11:56:04;9.35;;;3.30;;
65543;SDS011;52173;45.204;39.240;2022-07-18T11:58:37;8.02;;;2.90;;
65543;SDS011;52173;45.204;39.240;2022-07-18T12:01:06;6.97;;;3.10;;
65543;SDS011;52173;45.204;39.240;2022-07-18T12:03:53;8.77;;;3.03;;
65543;SDS011;52173;45.204;39.240;2022-07-18T12:06:19;8.15;;;3.50;;
65543;SDS011;52173;45.204;39.240;2022-07-18T12:08:48;7.47;;;3.03;;
65543;SDS011;52173;45.204;39.240;2022-07-18T12:11:18;7.93;;;3.00;;
65543;SDS011;52173;45.204;39.240;2022-07-18T12:18:54;10.80;;;2.70;;
65543;SDS011;52173;45.204;39.240;2022-07-18T12:21:21;6.05;;;2.75;;
65543;SDS011;52173;45.204;39.240;2022-07-18T12:23:48;6.55;;;2.78;;
65543;SDS011;52173;45.204;39.240;2022-07-18T12:26:30;8.30;;;3.03;;
65543;SDS011;52173;45.204;39.240;2022-07-18T12:29:04;6.75;;;2.85;;
65543;SDS011;52173;45.204;39.240;2022-07-18T12:31:38;6.28;;;2.80;;
65543;SDS011;52173;45.204;39.240;2022-07-18T12:34:15;6.57;;;2.80;;
65543;SDS011;52173;45.204;39.240;2022-07-18T12:36:52;5.38;;;2.95;;
65543;SDS011;52173;45.204;39.240;2022-07-18T12:39:29;6.90;;;2.95;;
65543;SDS011;52173;45.204;39.240;2022-07-18T12:41:58;6.95;;;2.90;;
65543;SDS011;52173;45.204;39.240;2022-07-18T12:44:27;5.15;;;2.78;;
65543;SDS011;52173;45.204;39.240;2022-07-18T12:46:54;7.22;;;2.80;;
65543;SDS011;52173;45.204;39.240;2022-07-18T12:49:21;5.68;;;2.60;;
65543;SDS011;52173;45.204;39.240;2022-07-18T12:51:47;7.28;;;2.55;;
65543;SDS011;52173;45.204;39.240;2022-07-18T12:54:16;5.63;;;2.60;;
65543;SDS011;52173;45.204;39.240;2022-07-18T12:56:44;5.22;;;2.45;;
65543;SDS011;52173;45.204;39.240;2022-07-18T12:59:10;5.38;;;2.72;;
65543;SDS011;52173;45.204;39.240;2022-07-18T13:01:37;6.93;;;2.70;;
65543;SDS011;52173;45.204;39.240;2022-07-18T13:04:03;6.68;;;2.30;;
65543;SDS011;52173;45.204;39.240;2022-07-18T13:06:30;5.40;;;2.58;;
65543;SDS011;52173;45.204;39.240;2022-07-18T13:09:00;5.68;;;2.63;;
65543;SDS011;52173;45.204;39.240;2022-07-18T13:11:26;4.63;;;2.60;;
65543;SDS011;52173;45.204;39.240;2022-07-18T13:13:53;12.90;;;2.40;;
65543;SDS011;52173;45.204;39.240;2022-07-18T13:16:19;6.03;;;2.45;;
65543;SDS011;52173;45.204;39.240;2022-07-18T13:18:45;4.90;;;2.42;;
65543;SDS011;52173;45.204;39.240;2022-07-18T13:21:12;4.68;;;2.30;;
65543;SDS011;52173;45.204;39.240;2022-07-18T13:23:38;7.93;;;2.33;;
65543;SDS011;52173;45.204;39.240;2022-07-18T13:26:04;10.93;;;2.40;;
65543;SDS011;52173;45.204;39.240;2022-07-18T13:28:31;8.68;;;2.78;;
65543;SDS011;52173;45.204;39.240;2022-07-18T13:30:57;7.47;;;2.53;;
65543;SDS011;52173;45.204;39.240;2022-07-18T13:33:24;7.13;;;2.40;;
65543;SDS011;52173;45.204;39.240;2022-07-18T13:35:50;9.43;;;2.38;;
65543;SDS011;52173;45.204;39.240;2022-07-18T13:38:16;4.53;;;2.47;;
65543;SDS011;52173;45.204;39.240;2022-07-18T13:40:42;6.45;;;2.83;;
65543;SDS011;52173;45.204;39.240;2022-07-18T13:43:09;7.35;;;2.47;;
65543;SDS011;52173;45.204;39.240;2022-07-18T13:45:37;11.68;;;2.08;;
65543;SDS011;52173;45.204;39.240;2022-07-18T13:48:04;4.47;;;2.05;;
65543;SDS011;52173;45.204;39.240;2022-07-18T13:50:30;4.57;;;2.30;;
65543;SDS011;52173;45.204;39.240;2022-07-18T13:52:57;6.25;;;2.13;;
65543;SDS011;52173;45.204;39.240;2022-07-18T13:55:23;3.72;;;2.20;;
65543;SDS011;52173;45.204;39.240;2022-07-18T13:57:49;5.30;;;1.90;;
65543;SDS011;52173;45.204;39.240;2022-07-18T14:00:16;15.93;;;2.60;;
65543;SDS011;52173;45.204;39.240;2022-07-18T14:02:43;8.32;;;2.30;;
65543;SDS011;52173;45.204;39.240;2022-07-18T14:05:10;8.27;;;1.92;;
65543;SDS011;52173;45.204;39.240;2022-07-18T14:07:38;7.50;;;2.28;;
65543;SDS011;52173;45.204;39.240;2022-07-18T14:10:38;6.60;;;2.20;;
65543;SDS011;52173;45.204;39.240;2022-07-18T14:13:04;6.72;;;2.17;;
65543;SDS011;52173;45.204;39.240;2022-07-18T14:15:30;6.03;;;2.10;;
65543;SDS011;52173;45.204;39.240;2022-07-18T14:17:57;7.53;;;2.22;;
65543;SDS011;52173;45.204;39.240;2022-07-18T14:20:23;6.15;;;2.03;;
65543;SDS011;52173;45.204;39.240;2022-07-18T14:22:49;10.15;;;3.15;;
65543;SDS011;52173;45.204;39.240;2022-07-18T14:25:16;6.47;;;2.45;;
65543;SDS011;52173;45.204;39.240;2022-07-18T14:27:44;9.82;;;2.30;;
65543;SDS011;52173;45.204;39.240;2022-07-18T14:30:11;8.77;;;2.00;;
65543;SDS011;52173;45.204;39.240;2022-07-18T14:32:39;4.97;;;2.33;;
65543;SDS011;52173;45.204;39.240;2022-07-18T14:35:06;6.88;;;1.67;;
65543;SDS011;52173;45.204;39.240;2022-07-18T14:37:33;4.43;;;1.77;;
65543;SDS011;52173;45.204;39.240;2022-07-18T14:40:00;8.10;;;1.88;;
65543;SDS011;52173;45.204;39.240;2022-07-18T14:42:26;7.45;;;1.73;;
65543;SDS011;52173;45.204;39.240;2022-07-18T14:44:53;7.47;;;2.50;;
65543;SDS011;52173;45.204;39.240;2022-07-18T14:47:20;3.42;;;1.50;;
65543;SDS011;52173;45.204;39.240;2022-07-18T14:49:46;7.50;;;2.50;;
65543;SDS011;52173;45.204;39.240;2022-07-18T14:52:12;3.40;;;1.67;;
65543;SDS011;52173;45.204;39.240;2022-07-18T14:54:39;5.20;;;1.60;;
65543;SDS011;52173;45.204;39.240;2022-07-18T14:57:05;11.48;;;1.60;;
65543;SDS011;52173;45.204;39.240;2022-07-18T14:59:31;4.65;;;1.60;;
65543;SDS011;52173;45.204;39.240;2022-07-18T15:01:58;7.47;;;1.75;;
65543;SDS011;52173;45.204;39.240;2022-07-18T15:04:27;11.30;;;2.00;;
65543;SDS011;52173;45.204;39.240;2022-07-18T15:06:53;5.63;;;1.65;;
65543;SDS011;52173;45.204;39.240;2022-07-18T15:09:19;6.53;;;2.10;;
65543;SDS011;52173;45.204;39.240;2022-07-18T15:11:46;13.05;;;2.40;;
65543;SDS011;52173;45.204;39.240;2022-07-18T15:14:12;5.72;;;1.80;;